sensor_id;sensor_type;location;lat;lon;timestamp;P1;durP1;ratioP1;P2;durP2;ratioP2
52724;SDS011;38621;52.830;6.914;2023-07-13T00:02:06;3.88;;;1.45;;
52724;SDS011;38621;52.830;6.914;2023-07-13T00:04:32;5.60;;;1.70;;
52724;SDS011;38621;52.830;6.914;2023-07-13T00:06:58;5.10;;;1.38;;
52724;SDS011;38621;52.830;6.914;2023-07-13T00:09:24;5.47;;;2.15;;
52724;SDS011;38621;52.830;6.914;2023-07-13T00:11:54;5.95;;;1.50;;
52724;SDS011;38621;52.830;6.914;2023-07-13T00:14:22;5.35;;;1.92;;
52724;SDS011;38621;52.830;6.914;2023-07-13T00:16:49;4.35;;;1.63;;
52724;SDS011;38621;52.830;6.914;2023-07-13T00:19:15;3.58;;;1.58;;
52724;SDS011;38621;52.830;6.914;2023-07-13T00:21:41;6.20;;;1.60;;
52724;SDS011;38621;52.830;6.914;2023-07-13T00:24:07;3.75;;;1.48;;
52724;SDS011;38621;52.830;6.914;2023-07-13T00:26:37;6.10;;;1.80;;
52724;SDS011;38621;52.830;6.914;2023-07-13T00:29:04;3.83;;;1.63;;
52724;SDS011;38621;52.830;6.914;2023-07-13T00:31:33;5.22;;;1.70;;
52724;SDS011;38621;52.830;6.914;2023-07-13T00:33:59;5.03;;;1.70;;
52724;SDS011;38621;52.830;6.914;2023-07-13T00:36:25;3.22;;;1.52;;
52724;SDS011;38621;52.830;6.914;2023-07-13T00:38:51;6.43;;;2.10;;
52724;SDS011;38621;52.830;6.914;2023-07-13T00:41:18;5.22;;;1.70;;
52724;SDS011;38621;52.830;6.914;2023-07-13T00:43:44;6.80;;;1.80;;
52724;SDS011;38621;52.830;6.914;2023-07-13T00:46:13;5.45;;;1.75;;
52724;SDS011;38621;52.830;6.914;2023-07-13T00:48:42;3.30;;;1.52;;
52724;SDS011;38621;52.830;6.914;2023-07-13T00:51:09;5.13;;;1.85;;
52724;SDS011;38621;52.830;6.914;2023-07-13T00:53:35;4.43;;;1.70;;
52724;SDS011;38621;52.830;6.914;2023-07-13T00:56:01;6.45;;;1.70;;
52724;SDS011;38621;52.830;6.914;2023-07-13T00:58:28;4.18;;;1.60;;
52724;SDS011;38621;52.830;6.914;2023-07-13T01:00:54;3.95;;;1.55;;
52724;SDS011;38621;52.830;6.914;2023-07-13T01:03:20;4.88;;;1.77;;
52724;SDS011;38621;52.830;6.914;2023-07-13T01:05:46;4.55;;;1.50;;
52724;SDS011;38621;52.830;6.914;2023-07-13T01:08:14;4.07;;;1.60;;
52724;SDS011;38621;52.830;6.914;2023-07-13T01:10:40;3.55;;;1.90;;
52724;SDS011;38621;52.830;6.914;2023-07-13T01:13:15;4.47;;;1.40;;
52724;SDS011;38621;52.830;6.914;2023-07-13T01:18:12;4.32;;;1.58;;
52724;SDS011;38621;52.830;6.914;2023-07-13T01:20:56;4.18;;;1.60;;
52724;SDS011;38621;52.830;6.914;2023-07-13T01:23:25;3.90;;;1.70;;
52724;SDS011;38621;52.830;6.914;2023-07-13T01:25:52;3.95;;;1.83;;
52724;SDS011;38621;52.830;6.914;2023-07-13T01:28:20;5.47;;;1.60;;
52724;SDS011;38621;52.830;6.914;2023-07-13T01:30:46;3.35;;;1.50;;
52724;SDS011;38621;52.830;6.914;2023-07-13T01:33:13;4.53;;;1.65;;
52724;SDS011;38621;52.830;6.914;2023-07-13T01:35:40;4.75;;;1.80;;
52724;SDS011;38621;52.830;6.914;2023-07-13T01:38:06;6.35;;;1.95;;
52724;SDS011;38621;52.830;6.914;2023-07-13T01:40:33;3.70;;;2.00;;
52724;SDS011;38621;52.830;6.914;2023-07-13T01:42:59;6.80;;;1.98;;
52724;SDS011;38621;52.830;6.914;2023-07-13T01:45:25;6.65;;;2.00;;
52724;SDS011;38621;52.830;6.914;2023-07-13T01:47:51;4.70;;;1.52;;
52724;SDS011;38621;52.830;6.914;2023-07-13T01:50:17;5.28;;;1.92;;
52724;SDS011;38621;52.830;6.914;2023-07-13T01:52:43;5.80;;;1.77;;
52724;SDS011;38621;52.830;6.914;2023-07-13T01:55:08;5.22;;;1.83;;
52724;SDS011;38621;52.830;6.914;2023-07-13T01:57:34;4.53;;;1.80;;
52724;SDS011;38621;52.830;6.914;2023-07-13T02:00:02;4.88;;;1.80;;
52724;SDS011;38621;52.830;6.914;2023-07-13T02:02:30;5.20;;;2.33;;
52724;SDS011;38621;52.830;6.914;2023-07-13T02:04:56;5.72;;;2.10;;
52724;SDS011;38621;52.830;6.914;2023-07-13T02:07:21;8.65;;;2.80;;
52724;SDS011;38621;52.830;6.914;2023-07-13T02:09:47;5.40;;;2.13;;
52724;SDS011;38621;52.830;6.914;2023-07-13T02:12:13;8.25;;;1.83;;
52724;SDS011;38621;52.830;6.914;2023-07-13T02:14:38;5.45;;;1.60;;
52724;SDS011;38621;52.830;6.914;2023-07-13T02:17:05;5.05;;;1.83;;
52724;SDS011;38621;52.830;6.914;2023-07-13T02:19:31;5.07;;;1.63;;
52724;SDS011;38621;52.830;6.914;2023-07-13T02:21:57;3.75;;;1.75;;
52724;SDS011;38621;52.830;6.914;2023-07-13T02:24:22;4.32;;;1.85;;
52724;SDS011;38621;52.830;6.914;2023-07-13T02:26:48;3.83;;;1.70;;
52724;SDS011;38621;52.830;6.914;2023-07-13T02:29:14;5.50;;;1.90;;
52724;SDS011;38621;52.830;6.914;2023-07-13T02:31:39;9.23;;;2.17;;
52724;SDS011;38621;52.830;6.914;2023-07-13T02:34:05;5.53;;;1.88;;
52724;SDS011;38621;52.830;6.914;2023-07-13T02:36:31;3.97;;;1.92;;
52724;SDS011;38621;52.830;6.914;2023-07-13T02:39:00;7.57;;;1.85;;
52724;SDS011;38621;52.830;6.914;2023-07-13T02:41:26;5.60;;;1.95;;
52724;SDS011;38621;52.830;6.914;2023-07-13T02:43:52;5.07;;;1.80;;
52724;SDS011;38621;52.830;6.914;2023-07-13T02:46:18;5.05;;;1.80;;
52724;SDS011;38621;52.830;6.914;2023-07-13T02:48:44;6.18;;;2.08;;
52724;SDS011;38621;52.830;6.914;2023-07-13T02:51:10;5.40;;;2.20;;
52724;SDS011;38621;52.830;6.914;2023-07-13T02:53:37;5.05;;;1.83;;
52724;SDS011;38621;52.830;6.914;2023-07-13T02:56:03;3.70;;;1.58;;
52724;SDS011;38621;52.830;6.914;2023-07-13T02:58:29;5.03;;;1.67;;
52724;SDS011;38621;52.830;6.914;2023-07-13T03:00:56;4.20;;;2.13;;
52724;SDS011;38621;52.830;6.914;2023-07-13T03:03:22;6.05;;;1.88;;
52724;SDS011;38621;52.830;6.914;2023-07-13T03:05:57;4.50;;;1.80;;
52724;SDS011;38621;52.830;6.914;2023-07-13T03:08:25;6.82;;;2.17;;
52724;SDS011;38621;52.830;6.914;2023-07-13T03:10:58;4.88;;;2.10;;
52724;SDS011;38621;52.830;6.914;2023-07-13T03:13:28;6.95;;;2.17;;
52724;SDS011;38621;52.830;6.914;2023-07-13T03:15:54;5.68;;;2.08;;
52724;SDS011;38621;52.830;6.914;2023-07-13T03:18:20;7.78;;;2.00;;
52724;SDS011;38621;52.830;6.914;2023-07-13T03:20:45;4.50;;;2.10;;
52724;SDS011;38621;52.830;6.914;2023-07-13T03:23:11;4.43;;;2.13;;
52724;SDS011;38621;52.830;6.914;2023-07-13T03:25:37;4.70;;;2.13;;
52724;SDS011;38621;52.830;6.914;2023-07-13T03:28:03;6.82;;;2.30;;
52724;SDS011;38621;52.830;6.914;2023-07-13T03:30:30;5.68;;;2.42;;
52724;SDS011;38621;52.830;6.914;2023-07-13T03:32:56;7.35;;;2.28;;
52724;SDS011;38621;52.830;6.914;2023-07-13T03:35:22;4.45;;;2.28;;
52724;SDS011;38621;52.830;6.914;2023-07-13T03:37:47;5.00;;;2.17;;
52724;SDS011;38621;52.830;6.914;2023-07-13T03:40:13;6.03;;;2.15;;
52724;SDS011;38621;52.830;6.914;2023-07-13T03:42:39;6.43;;;2.30;;
52724;SDS011;38621;52.830;6.914;2023-07-13T03:45:04;6.60;;;2.47;;
52724;SDS011;38621;52.830;6.914;2023-07-13T03:47:31;5.88;;;2.42;;
52724;SDS011;38621;52.830;6.914;2023-07-13T03:49:56;4.45;;;2.13;;
52724;SDS011;38621;52.830;6.914;2023-07-13T03:52:22;7.30;;;2.10;;
52724;SDS011;38621;52.830;6.914;2023-07-13T03:54:48;6.05;;;2.72;;
52724;SDS011;38621;52.830;6.914;2023-07-13T03:57:13;5.95;;;2.50;;
52724;SDS011;38621;52.830;6.914;2023-07-13T03:59:39;5.03;;;2.08;;
52724;SDS011;38621;52.830;6.914;2023-07-13T04:02:05;6.07;;;2.22;;
52724;SDS011;38621;52.830;6.914;2023-07-13T04:04:30;5.93;;;1.88;;
52724;SDS011;38621;52.830;6.914;2023-07-13T04:06:57;4.05;;;1.77;;
52724;SDS011;38621;52.830;6.914;2023-07-13T04:09:24;4.75;;;2.00;;
52724;SDS011;38621;52.830;6.914;2023-07-13T04:11:50;5.57;;;2.58;;
52724;SDS011;38621;52.830;6.914;2023-07-13T04:14:16;6.45;;;2.40;;
52724;SDS011;38621;52.830;6.914;2023-07-13T04:16:42;4.72;;;2.03;;
52724;SDS011;38621;52.830;6.914;2023-07-13T04:19:08;8.95;;;2.33;;
52724;SDS011;38621;52.830;6.914;2023-07-13T04:21:35;5.80;;;2.20;;
52724;SDS011;38621;52.830;6.914;2023-07-13T04:24:01;6.30;;;2.22;;
52724;SDS011;38621;52.830;6.914;2023-07-13T04:26:28;3.83;;;1.90;;
52724;SDS011;38621;52.830;6.914;2023-07-13T04:28:55;4.90;;;2.03;;
52724;SDS011;38621;52.830;6.914;2023-07-13T04:31:21;5.28;;;1.92;;
52724;SDS011;38621;52.830;6.914;2023-07-13T04:33:47;5.88;;;2.00;;
52724;SDS011;38621;52.830;6.914;2023-07-13T04:36:14;6.97;;;2.63;;
52724;SDS011;38621;52.830;6.914;2023-07-13T04:38:41;7.60;;;2.40;;
52724;SDS011;38621;52.830;6.914;2023-07-13T04:41:07;7.55;;;2.33;;
52724;SDS011;38621;52.830;6.914;2023-07-13T04:43:33;5.15;;;2.50;;
52724;SDS011;38621;52.830;6.914;2023-07-13T04:46:07;4.60;;;2.58;;
52724;SDS011;38621;52.830;6.914;2023-07-13T04:48:34;5.05;;;2.47;;
52724;SDS011;38621;52.830;6.914;2023-07-13T04:51:00;6.97;;;2.67;;
52724;SDS011;38621;52.830;6.914;2023-07-13T04:53:27;5.07;;;2.30;;
52724;SDS011;38621;52.830;6.914;2023-07-13T04:55:53;7.53;;;2.38;;
52724;SDS011;38621;52.830;6.914;2023-07-13T04:58:19;4.88;;;2.20;;
52724;SDS011;38621;52.830;6.914;2023-07-13T05:00:46;5.05;;;2.42;;
52724;SDS011;38621;52.830;6.914;2023-07-13T05:03:12;5.78;;;2.53;;
52724;SDS011;38621;52.830;6.914;2023-07-13T05:05:38;7.70;;;2.90;;
52724;SDS011;38621;52.830;6.914;2023-07-13T05:08:04;7.60;;;2.70;;
52724;SDS011;38621;52.830;6.914;2023-07-13T05:10:29;5.00;;;2.65;;
52724;SDS011;38621;52.830;6.914;2023-07-13T05:12:55;5.47;;;2.40;;
52724;SDS011;38621;52.830;6.914;2023-07-13T05:15:21;5.10;;;2.13;;
52724;SDS011;38621;52.830;6.914;2023-07-13T05:17:49;5.63;;;2.75;;
52724;SDS011;38621;52.830;6.914;2023-07-13T05:20:15;5.80;;;2.63;;
52724;SDS011;38621;52.830;6.914;2023-07-13T05:22:42;6.55;;;2.60;;
52724;SDS011;38621;52.830;6.914;2023-07-13T05:25:08;6.65;;;2.95;;
52724;SDS011;38621;52.830;6.914;2023-07-13T05:27:34;5.38;;;2.88;;
52724;SDS011;38621;52.830;6.914;2023-07-13T05:30:01;7.05;;;2.88;;
52724;SDS011;38621;52.830;6.914;2023-07-13T05:32:28;4.72;;;2.60;;
52724;SDS011;38621;52.830;6.914;2023-07-13T05:34:54;7.30;;;2.85;;
52724;SDS011;38621;52.830;6.914;2023-07-13T05:37:19;6.93;;;2.72;;
52724;SDS011;38621;52.830;6.914;2023-07-13T05:39:45;7.38;;;2.70;;
52724;SDS011;38621;52.830;6.914;2023-07-13T05:42:11;7.93;;;2.53;;
52724;SDS011;38621;52.830;6.914;2023-07-13T05:44:36;7.13;;;2.45;;
52724;SDS011;38621;52.830;6.914;2023-07-13T05:47:05;6.13;;;2.78;;
52724;SDS011;38621;52.830;6.914;2023-07-13T05:49:31;5.28;;;2.78;;
52724;SDS011;38621;52.830;6.914;2023-07-13T05:51:56;7.13;;;2.65;;
52724;SDS011;38621;52.830;6.914;2023-07-13T05:54:22;5.65;;;2.42;;
52724;SDS011;38621;52.830;6.914;2023-07-13T05:56:48;6.13;;;2.35;;
52724;SDS011;38621;52.830;6.914;2023-07-13T05:59:14;6.60;;;2.53;;
52724;SDS011;38621;52.830;6.914;2023-07-13T06:01:40;5.00;;;2.40;;
52724;SDS011;38621;52.830;6.914;2023-07-13T06:04:06;5.97;;;2.53;;
52724;SDS011;38621;52.830;6.914;2023-07-13T06:06:32;4.82;;;2.50;;
52724;SDS011;38621;52.830;6.914;2023-07-13T06:08:58;5.70;;;2.20;;
52724;SDS011;38621;52.830;6.914;2023-07-13T06:11:24;4.55;;;2.38;;
52724;SDS011;38621;52.830;6.914;2023-07-13T06:13:52;4.55;;;2.65;;
52724;SDS011;38621;52.830;6.914;2023-07-13T06:16:19;7.32;;;2.55;;
52724;SDS011;38621;52.830;6.914;2023-07-13T06:18:45;5.45;;;2.60;;
52724;SDS011;38621;52.830;6.914;2023-07-13T06:21:20;4.50;;;2.30;;
52724;SDS011;38621;52.830;6.914;2023-07-13T06:23:48;6.03;;;2.80;;
52724;SDS011;38621;52.830;6.914;2023-07-13T06:26:14;5.20;;;2.38;;
52724;SDS011;38621;52.830;6.914;2023-07-13T06:28:41;5.68;;;2.58;;
52724;SDS011;38621;52.830;6.914;2023-07-13T06:31:07;4.70;;;2.45;;
52724;SDS011;38621;52.830;6.914;2023-07-13T06:33:34;4.90;;;2.60;;
52724;SDS011;38621;52.830;6.914;2023-07-13T06:36:01;5.00;;;2.35;;
52724;SDS011;38621;52.830;6.914;2023-07-13T06:38:28;5.43;;;2.42;;
52724;SDS011;38621;52.830;6.914;2023-07-13T06:40:53;4.00;;;2.40;;
52724;SDS011;38621;52.830;6.914;2023-07-13T06:43:19;6.40;;;2.63;;
52724;SDS011;38621;52.830;6.914;2023-07-13T06:45:46;4.97;;;2.70;;
52724;SDS011;38621;52.830;6.914;2023-07-13T06:48:14;7.40;;;2.85;;
52724;SDS011;38621;52.830;6.914;2023-07-13T06:50:41;8.38;;;2.70;;
52724;SDS011;38621;52.830;6.914;2023-07-13T06:53:07;5.97;;;2.42;;
52724;SDS011;38621;52.830;6.914;2023-07-13T06:55:34;7.20;;;3.08;;
52724;SDS011;38621;52.830;6.914;2023-07-13T06:57:59;5.35;;;2.47;;
52724;SDS011;38621;52.830;6.914;2023-07-13T07:00:25;5.65;;;2.70;;
52724;SDS011;38621;52.830;6.914;2023-07-13T07:02:51;5.32;;;2.80;;
52724;SDS011;38621;52.830;6.914;2023-07-13T07:05:16;8.27;;;2.85;;
52724;SDS011;38621;52.830;6.914;2023-07-13T07:07:42;5.13;;;2.60;;
52724;SDS011;38621;52.830;6.914;2023-07-13T07:10:08;4.53;;;2.58;;
52724;SDS011;38621;52.830;6.914;2023-07-13T07:12:34;5.10;;;2.38;;
52724;SDS011;38621;52.830;6.914;2023-07-13T07:14:59;6.00;;;2.75;;
52724;SDS011;38621;52.830;6.914;2023-07-13T07:17:25;5.25;;;2.45;;
52724;SDS011;38621;52.830;6.914;2023-07-13T07:19:51;5.72;;;2.60;;
52724;SDS011;38621;52.830;6.914;2023-07-13T07:22:19;5.20;;;2.47;;
52724;SDS011;38621;52.830;6.914;2023-07-13T07:24:45;5.18;;;2.33;;
52724;SDS011;38621;52.830;6.914;2023-07-13T07:27:11;4.75;;;2.50;;
52724;SDS011;38621;52.830;6.914;2023-07-13T07:29:37;5.30;;;2.40;;
52724;SDS011;38621;52.830;6.914;2023-07-13T07:32:02;4.82;;;2.60;;
52724;SDS011;38621;52.830;6.914;2023-07-13T07:34:29;5.70;;;2.40;;
52724;SDS011;38621;52.830;6.914;2023-07-13T07:36:58;7.88;;;3.15;;
52724;SDS011;38621;52.830;6.914;2023-07-13T07:39:25;4.88;;;2.60;;
52724;SDS011;38621;52.830;6.914;2023-07-13T07:41:51;4.63;;;2.50;;
52724;SDS011;38621;52.830;6.914;2023-07-13T07:44:17;5.68;;;2.83;;
52724;SDS011;38621;52.830;6.914;2023-07-13T07:46:43;8.68;;;2.75;;
52724;SDS011;38621;52.830;6.914;2023-07-13T07:49:09;5.03;;;2.40;;
52724;SDS011;38621;52.830;6.914;2023-07-13T07:51:35;6.43;;;2.90;;
52724;SDS011;38621;52.830;6.914;2023-07-13T07:54:01;4.03;;;2.40;;
52724;SDS011;38621;52.830;6.914;2023-07-13T07:56:28;6.03;;;2.80;;
52724;SDS011;38621;52.830;6.914;2023-07-13T07:58:53;5.50;;;2.53;;
52724;SDS011;38621;52.830;6.914;2023-07-13T08:01:19;6.43;;;2.65;;
52724;SDS011;38621;52.830;6.914;2023-07-13T08:03:45;4.18;;;2.58;;
52724;SDS011;38621;52.830;6.914;2023-07-13T08:06:10;4.63;;;2.50;;
52724;SDS011;38621;52.830;6.914;2023-07-13T08:08:36;4.68;;;2.47;;
52724;SDS011;38621;52.830;6.914;2023-07-13T08:11:03;5.70;;;3.13;;
52724;SDS011;38621;52.830;6.914;2023-07-13T08:13:29;5.18;;;2.83;;
52724;SDS011;38621;52.830;6.914;2023-07-13T08:15:55;6.70;;;2.88;;
52724;SDS011;38621;52.830;6.914;2023-07-13T08:18:20;5.97;;;2.90;;
52724;SDS011;38621;52.830;6.914;2023-07-13T08:20:46;5.30;;;2.80;;
52724;SDS011;38621;52.830;6.914;2023-07-13T08:23:12;5.20;;;2.72;;
52724;SDS011;38621;52.830;6.914;2023-07-13T08:25:38;11.25;;;3.10;;
52724;SDS011;38621;52.830;6.914;2023-07-13T08:28:04;5.40;;;2.80;;
52724;SDS011;38621;52.830;6.914;2023-07-13T08:30:30;7.32;;;3.08;;
52724;SDS011;38621;52.830;6.914;2023-07-13T08:32:55;5.90;;;2.88;;
52724;SDS011;38621;52.830;6.914;2023-07-13T08:35:21;7.85;;;3.38;;
52724;SDS011;38621;52.830;6.914;2023-07-13T08:37:47;3.92;;;3.08;;
52724;SDS011;38621;52.830;6.914;2023-07-13T08:40:13;7.30;;;3.58;;
52724;SDS011;38621;52.830;6.914;2023-07-13T08:42:52;7.97;;;3.17;;
52724;SDS011;38621;52.830;6.914;2023-07-13T08:47:57;5.25;;;3.22;;
52724;SDS011;38621;52.830;6.914;2023-07-13T08:50:35;4.68;;;3.40;;
52724;SDS011;38621;52.830;6.914;2023-07-13T08:53:08;6.82;;;3.28;;
52724;SDS011;38621;52.830;6.914;2023-07-13T08:55:37;6.18;;;3.55;;
52724;SDS011;38621;52.830;6.914;2023-07-13T08:58:22;9.00;;;3.33;;
52724;SDS011;38621;52.830;6.914;2023-07-13T09:06:45;8.38;;;3.30;;
52724;SDS011;38621;52.830;6.914;2023-07-13T09:14:42;3.17;;;1.05;;
52724;SDS011;38621;52.830;6.914;2023-07-13T09:17:27;8.00;;;1.98;;
52724;SDS011;38621;52.830;6.914;2023-07-13T09:19:59;5.82;;;1.85;;
52724;SDS011;38621;52.830;6.914;2023-07-13T09:22:32;3.63;;;2.22;;
52724;SDS011;38621;52.830;6.914;2023-07-13T09:28:02;6.25;;;4.70;;
52724;SDS011;38621;52.830;6.914;2023-07-13T09:30:33;4.32;;;1.60;;
52724;SDS011;38621;52.830;6.914;2023-07-13T09:33:05;3.20;;;2.03;;
52724;SDS011;38621;52.830;6.914;2023-07-13T09:35:30;3.92;;;2.22;;
52724;SDS011;38621;52.830;6.914;2023-07-13T09:38:04;3.35;;;1.88;;
52724;SDS011;38621;52.830;6.914;2023-07-13T09:43:06;3.80;;;1.90;;
52724;SDS011;38621;52.830;6.914;2023-07-13T09:45:36;3.72;;;1.88;;
52724;SDS011;38621;52.830;6.914;2023-07-13T09:48:06;2.67;;;1.58;;
52724;SDS011;38621;52.830;6.914;2023-07-13T09:50:37;4.82;;;2.08;;
52724;SDS011;38621;52.830;6.914;2023-07-13T09:53:03;5.63;;;3.60;;
52724;SDS011;38621;52.830;6.914;2023-07-13T09:55:34;4.03;;;2.70;;
52724;SDS011;38621;52.830;6.914;2023-07-13T09:58:09;2.97;;;2.25;;
52724;SDS011;38621;52.830;6.914;2023-07-13T10:00:58;2.40;;;1.67;;
52724;SDS011;38621;52.830;6.914;2023-07-13T10:03:30;3.42;;;1.92;;
52724;SDS011;38621;52.830;6.914;2023-07-13T10:06:18;2.95;;;1.80;;
52724;SDS011;38621;52.830;6.914;2023-07-13T10:08:47;2.97;;;1.58;;
52724;SDS011;38621;52.830;6.914;2023-07-13T10:11:21;2.50;;;1.55;;
52724;SDS011;38621;52.830;6.914;2023-07-13T10:13:59;2.47;;;1.58;;
52724;SDS011;38621;52.830;6.914;2023-07-13T10:16:33;2.28;;;1.48;;
52724;SDS011;38621;52.830;6.914;2023-07-13T10:24:26;2.83;;;1.52;;
52724;SDS011;38621;52.830;6.914;2023-07-13T10:26:54;3.63;;;2.00;;
52724;SDS011;38621;52.830;6.914;2023-07-13T10:29:38;2.95;;;1.38;;
52724;SDS011;38621;52.830;6.914;2023-07-13T10:32:09;2.30;;;1.35;;
52724;SDS011;38621;52.830;6.914;2023-07-13T10:34:39;2.00;;;1.27;;
52724;SDS011;38621;52.830;6.914;2023-07-13T10:37:15;2.95;;;1.50;;
52724;SDS011;38621;52.830;6.914;2023-07-13T10:39:50;2.50;;;1.80;;
52724;SDS011;38621;52.830;6.914;2023-07-13T10:42:37;2.83;;;1.70;;
52724;SDS011;38621;52.830;6.914;2023-07-13T10:45:20;2.72;;;1.60;;
52724;SDS011;38621;52.830;6.914;2023-07-13T10:47:47;3.50;;;1.92;;
52724;SDS011;38621;52.830;6.914;2023-07-13T10:50:17;3.45;;;2.40;;
52724;SDS011;38621;52.830;6.914;2023-07-13T10:52:47;3.88;;;2.45;;
52724;SDS011;38621;52.830;6.914;2023-07-13T10:58:19;5.88;;;3.20;;
52724;SDS011;38621;52.830;6.914;2023-07-13T11:00:57;4.38;;;3.33;;
52724;SDS011;38621;52.830;6.914;2023-07-13T11:03:24;6.50;;;3.38;;
52724;SDS011;38621;52.830;6.914;2023-07-13T11:06:04;4.70;;;2.90;;
52724;SDS011;38621;52.830;6.914;2023-07-13T11:10:56;5.18;;;3.33;;
52724;SDS011;38621;52.830;6.914;2023-07-13T11:16:13;3.53;;;2.70;;
52724;SDS011;38621;52.830;6.914;2023-07-13T11:21:27;4.70;;;2.90;;
52724;SDS011;38621;52.830;6.914;2023-07-13T11:24:03;5.28;;;2.90;;
52724;SDS011;38621;52.830;6.914;2023-07-13T11:31:43;4.82;;;2.90;;
52724;SDS011;38621;52.830;6.914;2023-07-13T11:34:16;5.68;;;3.22;;
52724;SDS011;38621;52.830;6.914;2023-07-13T11:36:48;4.60;;;3.13;;
52724;SDS011;38621;52.830;6.914;2023-07-13T11:41:57;3.90;;;2.70;;
52724;SDS011;38621;52.830;6.914;2023-07-13T11:44:27;2.78;;;2.13;;
52724;SDS011;38621;52.830;6.914;2023-07-13T11:46:56;3.00;;;2.10;;
52724;SDS011;38621;52.830;6.914;2023-07-13T11:49:25;2.63;;;2.00;;
52724;SDS011;38621;52.830;6.914;2023-07-13T11:51:55;2.88;;;1.70;;
52724;SDS011;38621;52.830;6.914;2023-07-13T11:54:24;2.80;;;1.65;;
52724;SDS011;38621;52.830;6.914;2023-07-13T11:56:55;3.17;;;1.60;;
52724;SDS011;38621;52.830;6.914;2023-07-13T11:59:26;2.00;;;1.40;;
52724;SDS011;38621;52.830;6.914;2023-07-13T12:01:55;2.35;;;1.65;;
52724;SDS011;38621;52.830;6.914;2023-07-13T12:04:28;3.50;;;1.90;;
52724;SDS011;38621;52.830;6.914;2023-07-13T12:06:58;4.00;;;1.80;;
52724;SDS011;38621;52.830;6.914;2023-07-13T12:09:30;2.50;;;1.52;;
52724;SDS011;38621;52.830;6.914;2023-07-13T12:11:56;3.28;;;2.10;;
52724;SDS011;38621;52.830;6.914;2023-07-13T12:14:24;2.78;;;2.17;;
52724;SDS011;38621;52.830;6.914;2023-07-13T12:16:51;4.68;;;2.20;;
52724;SDS011;38621;52.830;6.914;2023-07-13T12:19:19;3.38;;;1.80;;
52724;SDS011;38621;52.830;6.914;2023-07-13T12:21:47;4.03;;;1.90;;
52724;SDS011;38621;52.830;6.914;2023-07-13T12:24:17;4.60;;;1.92;;
52724;SDS011;38621;52.830;6.914;2023-07-13T12:26:50;2.83;;;2.30;;
52724;SDS011;38621;52.830;6.914;2023-07-13T12:29:20;4.35;;;2.13;;
52724;SDS011;38621;52.830;6.914;2023-07-13T12:31:48;4.20;;;2.10;;
52724;SDS011;38621;52.830;6.914;2023-07-13T12:34:15;5.28;;;2.30;;
52724;SDS011;38621;52.830;6.914;2023-07-13T12:36:50;3.50;;;2.35;;
52724;SDS011;38621;52.830;6.914;2023-07-13T12:42:23;3.38;;;1.75;;
52724;SDS011;38621;52.830;6.914;2023-07-13T12:44:53;2.85;;;1.80;;
52724;SDS011;38621;52.830;6.914;2023-07-13T12:47:41;4.47;;;2.40;;
52724;SDS011;38621;52.830;6.914;2023-07-13T12:50:12;4.55;;;2.63;;
52724;SDS011;38621;52.830;6.914;2023-07-13T12:52:43;4.57;;;2.00;;
52724;SDS011;38621;52.830;6.914;2023-07-13T12:55:14;3.75;;;2.13;;
52724;SDS011;38621;52.830;6.914;2023-07-13T12:57:53;4.20;;;2.47;;
52724;SDS011;38621;52.830;6.914;2023-07-13T13:00:28;4.30;;;2.28;;
52724;SDS011;38621;52.830;6.914;2023-07-13T13:02:57;3.30;;;1.98;;
52724;SDS011;38621;52.830;6.914;2023-07-13T13:05:28;3.55;;;1.98;;
52724;SDS011;38621;52.830;6.914;2023-07-13T13:07:55;3.42;;;2.28;;
52724;SDS011;38621;52.830;6.914;2023-07-13T13:10:22;4.30;;;2.20;;
52724;SDS011;38621;52.830;6.914;2023-07-13T13:12:47;3.30;;;2.25;;
52724;SDS011;38621;52.830;6.914;2023-07-13T13:15:13;3.45;;;2.08;;
52724;SDS011;38621;52.830;6.914;2023-07-13T13:17:39;3.92;;;2.17;;
52724;SDS011;38621;52.830;6.914;2023-07-13T13:20:13;3.17;;;2.03;;
52724;SDS011;38621;52.830;6.914;2023-07-13T13:25:09;2.90;;;1.67;;
52724;SDS011;38621;52.830;6.914;2023-07-13T13:27:36;2.45;;;1.40;;
52724;SDS011;38621;52.830;6.914;2023-07-13T13:30:02;3.65;;;1.05;;
52724;SDS011;38621;52.830;6.914;2023-07-13T13:32:28;2.67;;;1.05;;
52724;SDS011;38621;52.830;6.914;2023-07-13T13:34:54;2.42;;;1.00;;
52724;SDS011;38621;52.830;6.914;2023-07-13T13:37:20;2.65;;;1.08;;
52724;SDS011;38621;52.830;6.914;2023-07-13T13:39:48;2.20;;;0.90;;
52724;SDS011;38621;52.830;6.914;2023-07-13T13:42:14;2.83;;;1.50;;
52724;SDS011;38621;52.830;6.914;2023-07-13T13:44:40;2.20;;;0.88;;
52724;SDS011;38621;52.830;6.914;2023-07-13T13:47:17;2.35;;;0.80;;
52724;SDS011;38621;52.830;6.914;2023-07-13T13:49:56;2.08;;;0.90;;
52724;SDS011;38621;52.830;6.914;2023-07-13T13:52:23;2.67;;;1.10;;
52724;SDS011;38621;52.830;6.914;2023-07-13T13:54:50;2.03;;;1.00;;
52724;SDS011;38621;52.830;6.914;2023-07-13T13:57:21;2.13;;;0.88;;
52724;SDS011;38621;52.830;6.914;2023-07-13T13:59:48;1.70;;;0.90;;
52724;SDS011;38621;52.830;6.914;2023-07-13T14:02:48;3.05;;;1.75;;
52724;SDS011;38621;52.830;6.914;2023-07-13T14:05:11;2.42;;;0.90;;
52724;SDS011;38621;52.830;6.914;2023-07-13T14:07:38;1.80;;;0.80;;
52724;SDS011;38621;52.830;6.914;2023-07-13T14:10:08;2.55;;;0.80;;
52724;SDS011;38621;52.830;6.914;2023-07-13T14:12:43;3.03;;;1.10;;
52724;SDS011;38621;52.830;6.914;2023-07-13T14:15:15;4.25;;;0.95;;
52724;SDS011;38621;52.830;6.914;2023-07-13T14:17:50;1.50;;;0.80;;
52724;SDS011;38621;52.830;6.914;2023-07-13T14:20:17;1.58;;;0.90;;
52724;SDS011;38621;52.830;6.914;2023-07-13T14:22:44;2.30;;;1.15;;
52724;SDS011;38621;52.830;6.914;2023-07-13T14:25:11;2.00;;;0.70;;
52724;SDS011;38621;52.830;6.914;2023-07-13T14:27:38;2.35;;;1.00;;
52724;SDS011;38621;52.830;6.914;2023-07-13T14:30:09;1.63;;;0.75;;
52724;SDS011;38621;52.830;6.914;2023-07-13T14:32:41;2.60;;;1.08;;
52724;SDS011;38621;52.830;6.914;2023-07-13T14:35:10;3.38;;;1.27;;
52724;SDS011;38621;52.830;6.914;2023-07-13T14:37:37;1.85;;;0.80;;
52724;SDS011;38621;52.830;6.914;2023-07-13T14:40:11;1.75;;;0.90;;
52724;SDS011;38621;52.830;6.914;2023-07-13T14:42:55;2.10;;;0.80;;
52724;SDS011;38621;52.830;6.914;2023-07-13T14:45:20;2.00;;;0.80;;
52724;SDS011;38621;52.830;6.914;2023-07-13T14:47:46;2.65;;;0.90;;
52724;SDS011;38621;52.830;6.914;2023-07-13T14:52:41;2.58;;;0.98;;
52724;SDS011;38621;52.830;6.914;2023-07-13T14:55:13;1.90;;;0.60;;
52724;SDS011;38621;52.830;6.914;2023-07-13T14:57:41;1.98;;;0.90;;
52724;SDS011;38621;52.830;6.914;2023-07-13T15:00:12;2.63;;;1.10;;
52724;SDS011;38621;52.830;6.914;2023-07-13T15:02:43;2.92;;;0.95;;
52724;SDS011;38621;52.830;6.914;2023-07-13T15:05:13;2.42;;;0.90;;
52724;SDS011;38621;52.830;6.914;2023-07-13T15:07:44;2.30;;;1.00;;
52724;SDS011;38621;52.830;6.914;2023-07-13T15:10:18;3.10;;;1.10;;
52724;SDS011;38621;52.830;6.914;2023-07-13T15:12:45;2.58;;;1.13;;
52724;SDS011;38621;52.830;6.914;2023-07-13T15:15:11;1.92;;;0.88;;
52724;SDS011;38621;52.830;6.914;2023-07-13T15:17:42;2.00;;;1.05;;
52724;SDS011;38621;52.830;6.914;2023-07-13T15:22:48;2.00;;;0.93;;
52724;SDS011;38621;52.830;6.914;2023-07-13T15:25:19;2.83;;;0.93;;
52724;SDS011;38621;52.830;6.914;2023-07-13T15:27:46;4.32;;;1.08;;
52724;SDS011;38621;52.830;6.914;2023-07-13T15:30:13;2.58;;;0.93;;
52724;SDS011;38621;52.830;6.914;2023-07-13T15:32:39;1.95;;;0.88;;
52724;SDS011;38621;52.830;6.914;2023-07-13T15:35:12;4.53;;;1.38;;
52724;SDS011;38621;52.830;6.914;2023-07-13T15:37:39;3.35;;;0.90;;
52724;SDS011;38621;52.830;6.914;2023-07-13T15:40:05;3.42;;;0.95;;
52724;SDS011;38621;52.830;6.914;2023-07-13T15:42:32;2.70;;;1.00;;
52724;SDS011;38621;52.830;6.914;2023-07-13T15:44:58;3.20;;;1.13;;
52724;SDS011;38621;52.830;6.914;2023-07-13T15:47:24;2.53;;;1.15;;
52724;SDS011;38621;52.830;6.914;2023-07-13T15:49:49;4.28;;;1.20;;
52724;SDS011;38621;52.830;6.914;2023-07-13T15:52:18;2.40;;;1.00;;